AirNav   Air Wisconsin pilot careers
 
 1219 users online  

B16 Whitfords Airport
Weedsport, New York, USA

GOING TO WEEDSPORT?


FAA INFORMATION EFFECTIVE 24 MAY 2018

Location

FAA Identifier: B16
Lat/Long: 43-04-48.9940N / 076-32-18.1520W
43-04.816567N / 076-32.302533W
43.0802761 / -76.5383756
(estimated)
Elevation: 400 ft. / 121.9 m (surveyed)
Variation: 12W (1990)
From city: 2 miles NE of WEEDSPORT, NY
Time zone: UTC -4 (UTC -5 during Standard Time)
Zip code: 13166

Airport Operations

Airport use: Open to the public
Activation date: 03/1953
Control tower: no
ARTCC: BOSTON CENTER
FSS: BUFFALO FLIGHT SERVICE STATION
NOTAMs facility: BUF (NOTAM-D service available)
Attendance: DAYLIGHT HOURS
Pattern altitude: 1200 ft. MSL
Wind indicator: lighted
Segmented circle: yes
Lights: ACTVT MIRL RY 10/28 - 122.7.
Beacon: white-green (lighted land airport)
BEACON OTS INDEFLY. DUSK-2300. FOR ROTG BCN AFTER 2300 CALL 315-834-9950.

Airport Communications

CTAF/UNICOM: 122.8
SYRACUSE APPROACH: 134.275
SYRACUSE DEPARTURE: 134.275
WX AWOS-3P at 6B9 (11 nm SE): 120.125 (315-685-5790)
WX AWOS-3 at 0G7 (16 nm SW): 120.0 (315-568-5362)
WX AWOS-3 at FZY (18 nm N): 119.275 (315-598-8773)
WX ASOS at SYR (19 nm E): PHONE 315-454-3350
  • CD THRU FLT SVCS 1-888-766-8267.

Nearby radio navigation aids

VOR radial/distance  VOR name  Freq  Var
SYRr263/15.4SYRACUSE VORTAC117.0011W
ITHr004/35.3ITHACA VOR/DME111.8010W
GGTr310/35.8GEORGETOWN VORTAC117.8011W

 
NDB name  Hdg/Dist  Freq  Var  ID
PENN YAN053/34.726012WPYA .--. -.-- .-

Airport Services

Fuel available: 100LL MOGAS
91 OCTANE NO-ETHANOL AVBL.
Parking: tiedowns
Airframe service: NONE
Powerplant service: NONE

Runway Information

Runway 10/28

Dimensions: 3630 x 60 ft. / 1106 x 18 m
Surface: asphalt, in good condition
Runway edge lights: medium intensity
RUNWAY 10  RUNWAY 28
Latitude: 43-04.829583N43-04.861533N
Longitude: 076-32.765700W076-31.951650W
Elevation: 398.0 ft.398.0 ft.
Traffic pattern: leftleft
Runway heading: 099 magnetic, 087 true279 magnetic, 267 true
Displaced threshold: 430 ft.350 ft.
Markings: nonprecision, in good conditionnonprecision, in good condition
Touchdown point: yes, no lightsyes, no lights
Obstructions: 34 ft. trees, 235 ft. from runway, 219 ft. left of centerline, 1:1 slope to clear
RY 10 APCH SLOPE 19:1 TO DSPLCD THR.
61 ft. trees, 328 ft. from runway, 221 ft. right of centerline, 2:1 slope to clear
RY 28 APPROACH SLOPE 12:1 TO DISPLACED THRESHOLD. RY 28 72 FT TREES 515 FT OUT 198 FT RIGHT 75 FT TREES 511 FT OUT 272 FT LEFT.

Runway E/W

Dimensions: 2800 x 100 ft. / 853 x 30 m
Surface: turf, in good condition
RUNWAY E  RUNWAY W
Latitude: 43-04.786867N43-04.771133N
Longitude: 076-31.915450W076-32.544050W
Elevation: 400.0 ft.397.0 ft.
Traffic pattern: leftleft
Runway heading: 280 magnetic, 268 true100 magnetic, 088 true
Obstructions: 12 ft. hill, 173 ft. from runway, 130 ft. right of centerline, 14:1 slope to clear60 ft. trees, 7 ft. from runway, 98 ft. left of centerline

Airport Ownership and Management from official FAA records

Ownership: Privately-owned
Owner: JOHN WHITFORD
3043 DITMAR ROAD
WEEDSPORT, NY 13166
Phone 315-834-9950
Manager: JOHN WHITFORD
3043 DITMAR ROAD
WEEDSPORT, NY 13166
Phone 315-834-9950

Airport Operational Statistics

Aircraft based on the field: 24
Single engine airplanes: 19
Multi engine airplanes: 1
Ultralights: 4
    
Aircraft operations: avg 117/week *
66% local general aviation
33% transient general aviation
2% military
* for 12-month period ending 30 April 2015

Additional Remarks

RY E/W CLSD NOV 1 - MAY 15.
ULTRALGTS ON & INVOF ARPT.

Instrument Procedures

NOTE: All procedures below are presented as PDF files. If you need a reader for these files, you should download the free Adobe Reader.

NOT FOR NAVIGATION. Please procure official charts for flight.
FAA instrument procedures published for use from 24 May 2018 at 0901Z to 21 June 2018 at 0900Z.

 
IAPs - Instrument Approach Procedures
RNAV (GPS) RWY 10   download (144KB)
RNAV (GPS) RWY 28   download (151KB)
NOTE: Special Take-Off Minimums/Departure Procedures apply   download (150KB)

Other nearby airports with instrument procedures:

6B9 - Skaneateles Aero Drome (11 nm SE)
0G7 - Finger Lakes Regional Airport (16 nm SW)
KFZY - Oswego County Airport (18 nm N)
KSYR - Syracuse Hancock International Airport (19 nm E)
KSDC - Williamson-Sodus Airport (27 nm W)
 
Loc | Ops | Rwys | IFR | FBO | Links
Com | Nav | Svcs | Stats | Notes

AirNav Hotels Sweepstakes
 
Area around B16 (Whitfords Airport)
 
Road maps at: MapQuest Bing Google
 
Aerial photo
WARNING: Photo may not be current or correct
Aerial photo of B16 (Whitfords Airport)
Photo taken 11-Jun-2007

Do you have a better or more recent aerial photo of Whitfords Airport that you would like to share? If so, please send us your photo.

 
Sectional chart

 
Airport distance calculator
Flying to Whitfords Airport? Find the distance to fly.

From to B16

Sunrise and sunset
Times for 25-May-2018
 Local
(UTC-4)
 Zulu
(UTC)
Morning civil twilight05:0109:01
Sunrise05:3509:35
Sunset20:3100:31
Evening civil twilight21:0501:05

Current date and time
Zulu (UTC)  25-May-2018 20:08:30
Local (UTC-4)  25-May-2018 16:08:30
 
METAR
KFZY 
18nm NE 
251954Z AUTO 29010KT 10SM CLR 28/12 A2983 RMK AO2 SLP101 T02830122
KSYR 
19nm E 
251954Z 27011G18KT 10SM FEW180 SCT250 28/12 A2983 RMK AO2 SLP096 T02830122
KSDC 
27nm W 
251935Z AUTO 24006KT 200V270 10SM CLR 27/11 A2987 RMK AO2
KN03 
33nm SE 
251955Z AUTO 24008KT 10SM CLR 26/08 A2990 RMK AO2
KPEO 
34nm SW 
251953Z AUTO 26007KT 230V300 30/09 A2987 RMK AO2 SLPNO T03000089 RVRNO
TAF
KSYR 
19nm E 
251722Z 2518/2618 26012KT P6SM SKC FM260100 VRB03KT P6SM SKC FM261400 27010KT P6SM SCT050 BKN250
NOTAMs
Click for the latest NOTAMs
NOTAMs are issued by the DoD/FAA and will open in a separate window not controlled by AirNav.

 

 
 

FBO, Fuel Providers, and Aircraft Ground Support

  
 Business Name 
 
 Contact 
 
 Services / Description 
 
Fuel Prices
 
Comments
  
Whitford's Airport, LLC 315-834-9950
no information available

If you are affiliated with Whitford's Airport, LLC and would like to show here your services, contact info, web link, logo, and more, click here
100LL Mogas
SS $4.59 $3.29 
 Updated 19-May-2018
 
   1 read write
SS=Self service
Update Fuel Prices
 

Would you like to see your business listed on this page?

 If your business provides an interesting product or service to pilots, flight crews, aircraft, or users of the Whitfords Airport, you should consider listing it here.  To start the listing process, click on the button below
 
Add a business
 

Other Pages about Whitfords Airport

www.whitfordairport.com
 
Update a link
 
Copyright © AirNav, LLC. All rights reserved. Privacy Policy  Contact